sensor_id;sensor_type;location;lat;lon;timestamp;P1;durP1;ratioP1;P2;durP2;ratioP2
56653;SDS011;45096;52.302;4.634;2023-04-24T00:01:21;1.13;;;1.10;;
56653;SDS011;45096;52.302;4.634;2023-04-24T00:03:48;0.73;;;0.70;;
56653;SDS011;45096;52.302;4.634;2023-04-24T00:06:13;0.90;;;0.90;;
56653;SDS011;45096;52.302;4.634;2023-04-24T00:08:38;3.40;;;0.90;;
56653;SDS011;45096;52.302;4.634;2023-04-24T00:11:04;0.95;;;0.80;;
56653;SDS011;45096;52.302;4.634;2023-04-24T00:13:29;1.50;;;0.80;;
56653;SDS011;45096;52.302;4.634;2023-04-24T00:15:55;1.75;;;0.75;;
56653;SDS011;45096;52.302;4.634;2023-04-24T00:18:21;1.00;;;0.95;;
56653;SDS011;45096;52.302;4.634;2023-04-24T00:20:47;1.15;;;1.13;;
56653;SDS011;45096;52.302;4.634;2023-04-24T00:23:13;1.05;;;0.90;;
56653;SDS011;45096;52.302;4.634;2023-04-24T00:25:38;1.38;;;0.95;;
56653;SDS011;45096;52.302;4.634;2023-04-24T00:28:04;1.95;;;1.10;;
56653;SDS011;45096;52.302;4.634;2023-04-24T00:30:29;3.38;;;2.03;;
56653;SDS011;45096;52.302;4.634;2023-04-24T00:32:55;2.72;;;1.00;;
56653;SDS011;45096;52.302;4.634;2023-04-24T00:35:20;3.45;;;1.23;;
56653;SDS011;45096;52.302;4.634;2023-04-24T00:37:47;1.15;;;1.15;;
56653;SDS011;45096;52.302;4.634;2023-04-24T00:40:12;3.33;;;1.20;;
56653;SDS011;45096;52.302;4.634;2023-04-24T00:42:38;1.02;;;0.93;;
56653;SDS011;45096;52.302;4.634;2023-04-24T00:45:04;0.82;;;0.82;;
56653;SDS011;45096;52.302;4.634;2023-04-24T00:47:30;0.80;;;0.80;;
56653;SDS011;45096;52.302;4.634;2023-04-24T00:49:57;1.65;;;0.85;;
56653;SDS011;45096;52.302;4.634;2023-04-24T00:52:22;1.05;;;1.05;;
56653;SDS011;45096;52.302;4.634;2023-04-24T00:54:49;1.00;;;1.00;;
56653;SDS011;45096;52.302;4.634;2023-04-24T00:57:14;0.90;;;0.90;;
56653;SDS011;45096;52.302;4.634;2023-04-24T00:59:40;3.38;;;1.10;;
56653;SDS011;45096;52.302;4.634;2023-04-24T01:02:06;1.55;;;1.15;;
56653;SDS011;45096;52.302;4.634;2023-04-24T01:04:32;0.88;;;0.88;;
56653;SDS011;45096;52.302;4.634;2023-04-24T01:06:57;2.40;;;1.00;;
56653;SDS011;45096;52.302;4.634;2023-04-24T01:09:23;1.52;;;1.27;;
56653;SDS011;45096;52.302;4.634;2023-04-24T01:11:50;1.35;;;0.95;;
56653;SDS011;45096;52.302;4.634;2023-04-24T01:14:15;0.88;;;0.80;;
56653;SDS011;45096;52.302;4.634;2023-04-24T01:16:41;2.40;;;1.85;;
56653;SDS011;45096;52.302;4.634;2023-04-24T01:19:06;3.60;;;1.38;;
56653;SDS011;45096;52.302;4.634;2023-04-24T01:21:32;1.25;;;1.00;;
56653;SDS011;45096;52.302;4.634;2023-04-24T01:24:01;2.85;;;0.90;;
56653;SDS011;45096;52.302;4.634;2023-04-24T01:26:26;1.33;;;0.80;;
56653;SDS011;45096;52.302;4.634;2023-04-24T01:28:52;1.95;;;0.98;;
56653;SDS011;45096;52.302;4.634;2023-04-24T01:31:18;2.60;;;1.20;;
56653;SDS011;45096;52.302;4.634;2023-04-24T01:33:43;2.13;;;1.00;;
56653;SDS011;45096;52.302;4.634;2023-04-24T01:36:09;2.00;;;1.10;;
56653;SDS011;45096;52.302;4.634;2023-04-24T01:38:35;3.22;;;1.08;;
56653;SDS011;45096;52.302;4.634;2023-04-24T01:41:02;2.25;;;0.80;;
56653;SDS011;45096;52.302;4.634;2023-04-24T01:43:28;4.40;;;1.20;;
56653;SDS011;45096;52.302;4.634;2023-04-24T01:45:53;1.20;;;1.20;;
56653;SDS011;45096;52.302;4.634;2023-04-24T01:48:19;0.95;;;0.85;;
56653;SDS011;45096;52.302;4.634;2023-04-24T01:50:44;2.17;;;0.80;;
56653;SDS011;45096;52.302;4.634;2023-04-24T01:53:10;1.00;;;0.80;;
56653;SDS011;45096;52.302;4.634;2023-04-24T01:55:35;1.55;;;0.90;;
56653;SDS011;45096;52.302;4.634;2023-04-24T01:58:02;3.90;;;1.30;;
56653;SDS011;45096;52.302;4.634;2023-04-24T02:00:28;2.05;;;1.20;;
56653;SDS011;45096;52.302;4.634;2023-04-24T02:02:53;2.88;;;1.00;;
56653;SDS011;45096;52.302;4.634;2023-04-24T02:05:18;2.20;;;1.05;;
56653;SDS011;45096;52.302;4.634;2023-04-24T02:07:44;2.42;;;1.20;;
56653;SDS011;45096;52.302;4.634;2023-04-24T02:10:09;3.55;;;1.38;;
56653;SDS011;45096;52.302;4.634;2023-04-24T02:12:35;1.98;;;1.77;;
56653;SDS011;45096;52.302;4.634;2023-04-24T02:15:02;3.67;;;1.10;;
56653;SDS011;45096;52.302;4.634;2023-04-24T02:17:28;0.90;;;0.90;;
56653;SDS011;45096;52.302;4.634;2023-04-24T02:19:53;2.85;;;1.00;;
56653;SDS011;45096;52.302;4.634;2023-04-24T02:22:19;0.65;;;0.65;;
56653;SDS011;45096;52.302;4.634;2023-04-24T02:24:44;0.80;;;0.80;;
56653;SDS011;45096;52.302;4.634;2023-04-24T02:27:10;0.75;;;0.68;;
56653;SDS011;45096;52.302;4.634;2023-04-24T02:29:35;1.20;;;0.80;;
56653;SDS011;45096;52.302;4.634;2023-04-24T02:32:02;0.77;;;0.77;;
56653;SDS011;45096;52.302;4.634;2023-04-24T02:34:27;1.70;;;0.75;;
56653;SDS011;45096;52.302;4.634;2023-04-24T02:36:53;1.85;;;0.90;;
56653;SDS011;45096;52.302;4.634;2023-04-24T02:39:18;0.80;;;0.80;;
56653;SDS011;45096;52.302;4.634;2023-04-24T02:41:44;1.20;;;0.80;;
56653;SDS011;45096;52.302;4.634;2023-04-24T02:44:09;2.75;;;0.70;;
56653;SDS011;45096;52.302;4.634;2023-04-24T02:46:35;0.95;;;0.95;;
56653;SDS011;45096;52.302;4.634;2023-04-24T02:49:02;0.80;;;0.80;;
56653;SDS011;45096;52.302;4.634;2023-04-24T02:51:27;0.77;;;0.70;;
56653;SDS011;45096;52.302;4.634;2023-04-24T02:53:52;0.77;;;0.77;;
56653;SDS011;45096;52.302;4.634;2023-04-24T02:56:18;1.15;;;0.80;;
56653;SDS011;45096;52.302;4.634;2023-04-24T02:58:43;1.02;;;0.80;;
56653;SDS011;45096;52.302;4.634;2023-04-24T03:01:09;0.85;;;0.70;;
56653;SDS011;45096;52.302;4.634;2023-04-24T03:03:34;2.70;;;0.98;;
56653;SDS011;45096;52.302;4.634;2023-04-24T03:06:01;0.70;;;0.70;;
56653;SDS011;45096;52.302;4.634;2023-04-24T03:08:27;0.80;;;0.80;;
56653;SDS011;45096;52.302;4.634;2023-04-24T03:10:52;0.90;;;0.90;;
56653;SDS011;45096;52.302;4.634;2023-04-24T03:13:18;1.48;;;0.70;;
56653;SDS011;45096;52.302;4.634;2023-04-24T03:15:43;1.08;;;0.98;;
56653;SDS011;45096;52.302;4.634;2023-04-24T03:18:08;0.70;;;0.70;;
56653;SDS011;45096;52.302;4.634;2023-04-24T03:20:34;0.75;;;0.75;;
56653;SDS011;45096;52.302;4.634;2023-04-24T03:23:01;0.75;;;0.75;;
56653;SDS011;45096;52.302;4.634;2023-04-24T03:25:26;1.17;;;0.80;;
56653;SDS011;45096;52.302;4.634;2023-04-24T03:27:51;0.80;;;0.80;;
56653;SDS011;45096;52.302;4.634;2023-04-24T03:30:17;1.35;;;0.80;;
56653;SDS011;45096;52.302;4.634;2023-04-24T03:32:42;2.10;;;0.77;;
56653;SDS011;45096;52.302;4.634;2023-04-24T03:35:08;1.40;;;0.98;;
56653;SDS011;45096;52.302;4.634;2023-04-24T03:37:34;0.85;;;0.73;;
56653;SDS011;45096;52.302;4.634;2023-04-24T03:40:01;1.45;;;0.93;;
56653;SDS011;45096;52.302;4.634;2023-04-24T03:42:26;3.25;;;0.98;;
56653;SDS011;45096;52.302;4.634;2023-04-24T03:44:51;0.80;;;0.80;;
56653;SDS011;45096;52.302;4.634;2023-04-24T03:47:17;0.63;;;0.63;;
56653;SDS011;45096;52.302;4.634;2023-04-24T03:49:42;1.08;;;0.80;;
56653;SDS011;45096;52.302;4.634;2023-04-24T03:52:08;0.70;;;0.70;;
56653;SDS011;45096;52.302;4.634;2023-04-24T03:54:33;0.70;;;0.70;;
56653;SDS011;45096;52.302;4.634;2023-04-24T03:57:00;1.08;;;0.80;;
56653;SDS011;45096;52.302;4.634;2023-04-24T03:59:25;27.95;;;16.88;;
56653;SDS011;45096;52.302;4.634;2023-04-24T04:01:51;95.30;;;56.95;;
56653;SDS011;45096;52.302;4.634;2023-04-24T04:04:16;73.68;;;47.35;;
56653;SDS011;45096;52.302;4.634;2023-04-24T04:06:42;17.90;;;11.35;;
56653;SDS011;45096;52.302;4.634;2023-04-24T04:09:07;12.40;;;8.73;;
56653;SDS011;45096;52.302;4.634;2023-04-24T04:11:33;7.20;;;4.53;;
56653;SDS011;45096;52.302;4.634;2023-04-24T04:13:59;4.18;;;2.58;;
56653;SDS011;45096;52.302;4.634;2023-04-24T04:16:25;2.45;;;1.95;;
56653;SDS011;45096;52.302;4.634;2023-04-24T04:18:50;1.40;;;1.30;;
56653;SDS011;45096;52.302;4.634;2023-04-24T04:21:16;2.92;;;1.20;;
56653;SDS011;45096;52.302;4.634;2023-04-24T04:23:41;1.23;;;1.10;;
56653;SDS011;45096;52.302;4.634;2023-04-24T04:26:07;1.45;;;1.27;;
56653;SDS011;45096;52.302;4.634;2023-04-24T04:28:32;1.85;;;1.02;;
56653;SDS011;45096;52.302;4.634;2023-04-24T04:30:59;0.82;;;0.70;;
56653;SDS011;45096;52.302;4.634;2023-04-24T04:33:24;0.70;;;0.70;;
56653;SDS011;45096;52.302;4.634;2023-04-24T04:35:50;0.90;;;0.85;;
56653;SDS011;45096;52.302;4.634;2023-04-24T04:38:15;1.45;;;0.80;;
56653;SDS011;45096;52.302;4.634;2023-04-24T04:40:41;2.05;;;1.33;;
56653;SDS011;45096;52.302;4.634;2023-04-24T04:43:06;2.58;;;1.00;;
56653;SDS011;45096;52.302;4.634;2023-04-24T04:45:32;1.10;;;1.10;;
56653;SDS011;45096;52.302;4.634;2023-04-24T04:47:58;0.98;;;0.98;;
56653;SDS011;45096;52.302;4.634;2023-04-24T04:50:24;1.40;;;1.10;;
56653;SDS011;45096;52.302;4.634;2023-04-24T04:52:49;1.63;;;1.42;;
56653;SDS011;45096;52.302;4.634;2023-04-24T04:55:15;1.50;;;1.25;;
56653;SDS011;45096;52.302;4.634;2023-04-24T04:57:40;1.48;;;1.38;;
56653;SDS011;45096;52.302;4.634;2023-04-24T05:00:06;5.55;;;2.13;;
56653;SDS011;45096;52.302;4.634;2023-04-24T05:02:33;4.82;;;2.40;;
56653;SDS011;45096;52.302;4.634;2023-04-24T05:04:59;6.28;;;2.35;;
56653;SDS011;45096;52.302;4.634;2023-04-24T05:07:25;3.38;;;2.97;;
56653;SDS011;45096;52.302;4.634;2023-04-24T05:09:50;3.05;;;2.40;;
56653;SDS011;45096;52.302;4.634;2023-04-24T05:12:16;3.65;;;2.95;;
56653;SDS011;45096;52.302;4.634;2023-04-24T05:14:41;9.63;;;4.65;;
56653;SDS011;45096;52.302;4.634;2023-04-24T05:17:06;9.85;;;5.18;;
56653;SDS011;45096;52.302;4.634;2023-04-24T05:19:32;10.52;;;6.82;;
56653;SDS011;45096;52.302;4.634;2023-04-24T05:21:59;6.03;;;5.43;;
56653;SDS011;45096;52.302;4.634;2023-04-24T05:24:24;8.77;;;5.95;;
56653;SDS011;45096;52.302;4.634;2023-04-24T05:26:50;12.90;;;9.15;;
56653;SDS011;45096;52.302;4.634;2023-04-24T05:29:15;11.20;;;6.78;;
56653;SDS011;45096;52.302;4.634;2023-04-24T05:31:40;9.52;;;4.72;;
56653;SDS011;45096;52.302;4.634;2023-04-24T05:34:06;12.23;;;5.80;;
56653;SDS011;45096;52.302;4.634;2023-04-24T05:36:31;14.20;;;6.78;;
56653;SDS011;45096;52.302;4.634;2023-04-24T05:38:58;9.20;;;4.10;;
56653;SDS011;45096;52.302;4.634;2023-04-24T05:41:23;13.90;;;6.05;;
56653;SDS011;45096;52.302;4.634;2023-04-24T05:43:49;9.77;;;6.10;;
56653;SDS011;45096;52.302;4.634;2023-04-24T05:46:14;9.10;;;4.88;;
56653;SDS011;45096;52.302;4.634;2023-04-24T05:48:40;9.38;;;5.75;;
56653;SDS011;45096;52.302;4.634;2023-04-24T05:51:05;13.52;;;6.95;;
56653;SDS011;45096;52.302;4.634;2023-04-24T05:53:31;8.00;;;4.45;;
56653;SDS011;45096;52.302;4.634;2023-04-24T05:55:57;7.70;;;5.03;;
56653;SDS011;45096;52.302;4.634;2023-04-24T05:58:23;8.30;;;5.40;;
56653;SDS011;45096;52.302;4.634;2023-04-24T06:00:48;12.00;;;6.68;;
56653;SDS011;45096;52.302;4.634;2023-04-24T06:03:14;12.10;;;5.35;;
56653;SDS011;45096;52.302;4.634;2023-04-24T06:05:39;14.98;;;6.30;;
56653;SDS011;45096;52.302;4.634;2023-04-24T06:08:04;12.40;;;6.93;;
56653;SDS011;45096;52.302;4.634;2023-04-24T06:10:30;10.52;;;5.25;;
56653;SDS011;45096;52.302;4.634;2023-04-24T06:12:57;8.15;;;5.57;;
56653;SDS011;45096;52.302;4.634;2023-04-24T06:15:22;9.18;;;5.70;;
56653;SDS011;45096;52.302;4.634;2023-04-24T06:17:48;9.70;;;5.05;;
56653;SDS011;45096;52.302;4.634;2023-04-24T06:20:13;13.82;;;5.65;;
56653;SDS011;45096;52.302;4.634;2023-04-24T06:22:38;13.40;;;6.13;;
56653;SDS011;45096;52.302;4.634;2023-04-24T06:25:04;15.93;;;6.55;;
56653;SDS011;45096;52.302;4.634;2023-04-24T06:27:30;11.02;;;4.80;;
56653;SDS011;45096;52.302;4.634;2023-04-24T06:29:57;17.45;;;5.70;;
56653;SDS011;45096;52.302;4.634;2023-04-24T06:32:23;16.95;;;5.57;;
56653;SDS011;45096;52.302;4.634;2023-04-24T06:34:48;10.80;;;4.30;;
56653;SDS011;45096;52.302;4.634;2023-04-24T06:37:14;11.55;;;4.20;;
56653;SDS011;45096;52.302;4.634;2023-04-24T06:39:39;13.55;;;5.40;;
56653;SDS011;45096;52.302;4.634;2023-04-24T06:42:05;13.88;;;4.50;;
56653;SDS011;45096;52.302;4.634;2023-04-24T06:44:30;13.30;;;4.85;;
56653;SDS011;45096;52.302;4.634;2023-04-24T06:46:57;16.48;;;4.78;;
56653;SDS011;45096;52.302;4.634;2023-04-24T06:49:23;11.77;;;4.88;;
56653;SDS011;45096;52.302;4.634;2023-04-24T06:51:48;14.50;;;5.35;;
56653;SDS011;45096;52.302;4.634;2023-04-24T06:54:13;12.38;;;4.72;;
56653;SDS011;45096;52.302;4.634;2023-04-24T06:56:39;12.20;;;5.15;;
56653;SDS011;45096;52.302;4.634;2023-04-24T06:59:04;12.13;;;5.03;;
56653;SDS011;45096;52.302;4.634;2023-04-24T07:01:30;11.27;;;4.22;;
56653;SDS011;45096;52.302;4.634;2023-04-24T07:03:57;14.25;;;4.68;;
56653;SDS011;45096;52.302;4.634;2023-04-24T07:06:22;14.63;;;5.28;;
56653;SDS011;45096;52.302;4.634;2023-04-24T07:08:47;12.65;;;5.03;;
56653;SDS011;45096;52.302;4.634;2023-04-24T07:11:13;19.45;;;5.68;;
56653;SDS011;45096;52.302;4.634;2023-04-24T07:13:39;16.15;;;4.30;;
56653;SDS011;45096;52.302;4.634;2023-04-24T07:16:04;11.60;;;3.85;;
56653;SDS011;45096;52.302;4.634;2023-04-24T07:18:30;14.75;;;4.97;;
56653;SDS011;45096;52.302;4.634;2023-04-24T07:20:56;10.13;;;3.67;;
56653;SDS011;45096;52.302;4.634;2023-04-24T07:23:22;10.50;;;3.75;;
56653;SDS011;45096;52.302;4.634;2023-04-24T07:25:47;9.07;;;3.17;;
56653;SDS011;45096;52.302;4.634;2023-04-24T07:28:13;12.95;;;3.88;;
56653;SDS011;45096;52.302;4.634;2023-04-24T07:30:38;11.35;;;3.78;;
56653;SDS011;45096;52.302;4.634;2023-04-24T07:33:04;10.55;;;3.40;;
56653;SDS011;45096;52.302;4.634;2023-04-24T07:35:29;9.15;;;3.50;;
56653;SDS011;45096;52.302;4.634;2023-04-24T07:37:56;10.77;;;2.97;;
56653;SDS011;45096;52.302;4.634;2023-04-24T07:40:21;10.38;;;4.05;;
56653;SDS011;45096;52.302;4.634;2023-04-24T07:42:47;9.43;;;3.13;;
56653;SDS011;45096;52.302;4.634;2023-04-24T07:45:12;13.88;;;3.17;;
56653;SDS011;45096;52.302;4.634;2023-04-24T07:47:38;9.88;;;2.45;;
56653;SDS011;45096;52.302;4.634;2023-04-24T07:50:03;9.05;;;2.80;;
56653;SDS011;45096;52.302;4.634;2023-04-24T07:52:29;6.47;;;3.22;;
56653;SDS011;45096;52.302;4.634;2023-04-24T07:54:56;9.73;;;3.22;;
56653;SDS011;45096;52.302;4.634;2023-04-24T07:57:22;16.98;;;3.58;;
56653;SDS011;45096;52.302;4.634;2023-04-24T07:59:47;6.32;;;2.60;;
56653;SDS011;45096;52.302;4.634;2023-04-24T08:02:13;8.65;;;2.60;;
56653;SDS011;45096;52.302;4.634;2023-04-24T08:04:38;6.28;;;2.70;;
56653;SDS011;45096;52.302;4.634;2023-04-24T08:07:03;10.68;;;2.90;;
56653;SDS011;45096;52.302;4.634;2023-04-24T08:09:29;8.18;;;2.97;;
56653;SDS011;45096;52.302;4.634;2023-04-24T08:11:56;6.97;;;2.97;;
56653;SDS011;45096;52.302;4.634;2023-04-24T08:14:21;13.90;;;3.40;;
56653;SDS011;45096;52.302;4.634;2023-04-24T08:16:47;14.48;;;3.78;;
56653;SDS011;45096;52.302;4.634;2023-04-24T08:19:12;6.38;;;2.53;;
56653;SDS011;45096;52.302;4.634;2023-04-24T08:21:38;6.40;;;2.80;;
56653;SDS011;45096;52.302;4.634;2023-04-24T08:24:03;7.82;;;3.15;;
56653;SDS011;45096;52.302;4.634;2023-04-24T08:26:29;7.10;;;2.47;;
56653;SDS011;45096;52.302;4.634;2023-04-24T08:28:56;9.90;;;2.65;;
56653;SDS011;45096;52.302;4.634;2023-04-24T08:31:21;7.65;;;2.97;;
56653;SDS011;45096;52.302;4.634;2023-04-24T08:33:46;14.82;;;3.60;;
56653;SDS011;45096;52.302;4.634;2023-04-24T08:36:12;7.47;;;2.97;;
56653;SDS011;45096;52.302;4.634;2023-04-24T08:38:37;11.32;;;2.63;;
56653;SDS011;45096;52.302;4.634;2023-04-24T08:41:03;8.23;;;2.80;;
56653;SDS011;45096;52.302;4.634;2023-04-24T08:43:29;7.75;;;2.80;;
56653;SDS011;45096;52.302;4.634;2023-04-24T08:45:56;5.97;;;3.17;;
56653;SDS011;45096;52.302;4.634;2023-04-24T08:48:22;6.68;;;2.75;;
56653;SDS011;45096;52.302;4.634;2023-04-24T08:50:48;5.18;;;2.30;;
56653;SDS011;45096;52.302;4.634;2023-04-24T08:53:13;8.50;;;2.78;;
56653;SDS011;45096;52.302;4.634;2023-04-24T08:55:39;5.55;;;2.10;;
56653;SDS011;45096;52.302;4.634;2023-04-24T08:58:06;6.15;;;2.22;;
56653;SDS011;45096;52.302;4.634;2023-04-24T09:00:31;5.07;;;2.03;;
56653;SDS011;45096;52.302;4.634;2023-04-24T09:03:00;6.35;;;3.00;;
56653;SDS011;45096;52.302;4.634;2023-04-24T09:05:26;6.75;;;2.92;;
56653;SDS011;45096;52.302;4.634;2023-04-24T09:07:53;6.63;;;2.47;;
56653;SDS011;45096;52.302;4.634;2023-04-24T09:10:19;10.40;;;2.55;;
56653;SDS011;45096;52.302;4.634;2023-04-24T09:12:45;7.80;;;2.67;;
56653;SDS011;45096;52.302;4.634;2023-04-24T09:15:11;5.43;;;2.15;;
56653;SDS011;45096;52.302;4.634;2023-04-24T09:17:37;5.90;;;1.90;;
56653;SDS011;45096;52.302;4.634;2023-04-24T09:20:05;5.80;;;2.03;;
56653;SDS011;45096;52.302;4.634;2023-04-24T09:22:31;6.90;;;1.83;;
56653;SDS011;45096;52.302;4.634;2023-04-24T09:24:59;3.75;;;1.60;;
56653;SDS011;45096;52.302;4.634;2023-04-24T09:27:28;4.00;;;1.70;;
56653;SDS011;45096;52.302;4.634;2023-04-24T09:29:53;4.95;;;2.58;;
56653;SDS011;45096;52.302;4.634;2023-04-24T09:32:19;7.93;;;2.17;;
56653;SDS011;45096;52.302;4.634;2023-04-24T09:34:45;2.67;;;1.70;;
56653;SDS011;45096;52.302;4.634;2023-04-24T09:37:13;4.82;;;1.90;;
56653;SDS011;45096;52.302;4.634;2023-04-24T09:40:06;6.07;;;2.00;;
56653;SDS011;45096;52.302;4.634;2023-04-24T09:42:32;2.13;;;1.40;;
56653;SDS011;45096;52.302;4.634;2023-04-24T09:44:58;4.70;;;1.67;;
56653;SDS011;45096;52.302;4.634;2023-04-24T09:47:23;4.25;;;1.45;;
56653;SDS011;45096;52.302;4.634;2023-04-24T09:49:48;5.57;;;2.22;;
56653;SDS011;45096;52.302;4.634;2023-04-24T09:52:15;7.50;;;2.33;;
56653;SDS011;45096;52.302;4.634;2023-04-24T09:54:41;6.05;;;1.88;;
56653;SDS011;45096;52.302;4.634;2023-04-24T09:57:07;5.72;;;2.13;;
56653;SDS011;45096;52.302;4.634;2023-04-24T09:59:33;5.80;;;2.00;;
56653;SDS011;45096;52.302;4.634;2023-04-24T10:01:59;9.25;;;2.35;;
56653;SDS011;45096;52.302;4.634;2023-04-24T10:04:27;3.83;;;2.38;;
56653;SDS011;45096;52.302;4.634;2023-04-24T10:06:54;6.63;;;2.42;;
56653;SDS011;45096;52.302;4.634;2023-04-24T10:09:22;7.78;;;2.47;;
56653;SDS011;45096;52.302;4.634;2023-04-24T10:11:49;6.68;;;2.17;;
56653;SDS011;45096;52.302;4.634;2023-04-24T10:14:16;2.53;;;2.00;;
56653;SDS011;45096;52.302;4.634;2023-04-24T10:16:43;5.03;;;2.38;;
56653;SDS011;45096;52.302;4.634;2023-04-24T10:19:09;5.40;;;1.98;;
56653;SDS011;45096;52.302;4.634;2023-04-24T10:21:35;3.22;;;1.17;;
56653;SDS011;45096;52.302;4.634;2023-04-24T10:24:00;5.40;;;1.35;;
56653;SDS011;45096;52.302;4.634;2023-04-24T10:26:27;5.68;;;1.13;;
56653;SDS011;45096;52.302;4.634;2023-04-24T10:28:53;4.15;;;1.60;;
56653;SDS011;45096;52.302;4.634;2023-04-24T10:31:19;2.05;;;1.30;;
56653;SDS011;45096;52.302;4.634;2023-04-24T10:33:45;4.78;;;1.45;;
56653;SDS011;45096;52.302;4.634;2023-04-24T10:36:11;1.40;;;0.95;;
56653;SDS011;45096;52.302;4.634;2023-04-24T10:38:38;1.63;;;0.90;;
56653;SDS011;45096;52.302;4.634;2023-04-24T10:41:08;3.03;;;1.40;;
56653;SDS011;45096;52.302;4.634;2023-04-24T10:43:35;3.65;;;1.40;;
56653;SDS011;45096;52.302;4.634;2023-04-24T10:46:01;6.22;;;1.90;;
56653;SDS011;45096;52.302;4.634;2023-04-24T10:48:27;4.38;;;1.40;;
56653;SDS011;45096;52.302;4.634;2023-04-24T10:50:53;7.00;;;1.58;;
56653;SDS011;45096;52.302;4.634;2023-04-24T10:53:20;6.47;;;1.25;;
56653;SDS011;45096;52.302;4.634;2023-04-24T10:55:46;3.30;;;1.65;;
56653;SDS011;45096;52.302;4.634;2023-04-24T10:58:13;3.60;;;1.35;;
56653;SDS011;45096;52.302;4.634;2023-04-24T11:00:40;8.10;;;1.63;;
56653;SDS011;45096;52.302;4.634;2023-04-24T11:03:06;6.22;;;2.10;;
56653;SDS011;45096;52.302;4.634;2023-04-24T11:05:52;5.60;;;1.98;;
56653;SDS011;45096;52.302;4.634;2023-04-24T11:08:23;3.47;;;2.03;;
56653;SDS011;45096;52.302;4.634;2023-04-24T11:10:54;3.70;;;2.30;;
56653;SDS011;45096;52.302;4.634;2023-04-24T11:13:21;6.68;;;2.47;;
56653;SDS011;45096;52.302;4.634;2023-04-24T11:15:54;5.68;;;2.17;;
56653;SDS011;45096;52.302;4.634;2023-04-24T11:18:37;14.48;;;2.55;;
56653;SDS011;45096;52.302;4.634;2023-04-24T11:21:09;8.98;;;2.10;;
56653;SDS011;45096;52.302;4.634;2023-04-24T11:23:35;5.07;;;2.10;;
56653;SDS011;45096;52.302;4.634;2023-04-24T11:26:09;6.80;;;1.95;;
56653;SDS011;45096;52.302;4.634;2023-04-24T11:28:35;11.18;;;2.92;;
56653;SDS011;45096;52.302;4.634;2023-04-24T11:31:12;4.95;;;2.45;;
56653;SDS011;45096;52.302;4.634;2023-04-24T11:34:07;11.30;;;3.03;;
56653;SDS011;45096;52.302;4.634;2023-04-24T11:36:33;8.57;;;2.47;;
56653;SDS011;45096;52.302;4.634;2023-04-24T11:38:59;8.02;;;2.55;;
56653;SDS011;45096;52.302;4.634;2023-04-24T11:41:25;11.77;;;2.42;;
56653;SDS011;45096;52.302;4.634;2023-04-24T11:43:50;13.40;;;2.58;;
56653;SDS011;45096;52.302;4.634;2023-04-24T11:46:19;10.20;;;2.90;;
56653;SDS011;45096;52.302;4.634;2023-04-24T11:48:45;7.63;;;3.25;;
56653;SDS011;45096;52.302;4.634;2023-04-24T11:51:11;8.68;;;2.90;;
56653;SDS011;45096;52.302;4.634;2023-04-24T11:53:37;8.80;;;3.15;;
56653;SDS011;45096;52.302;4.634;2023-04-24T11:56:02;11.77;;;2.58;;
56653;SDS011;45096;52.302;4.634;2023-04-24T11:58:28;9.93;;;3.15;;
56653;SDS011;45096;52.302;4.634;2023-04-24T12:00:55;12.77;;;3.95;;
56653;SDS011;45096;52.302;4.634;2023-04-24T12:03:23;8.63;;;2.97;;
56653;SDS011;45096;52.302;4.634;2023-04-24T12:05:48;9.07;;;3.40;;
56653;SDS011;45096;52.302;4.634;2023-04-24T12:08:26;12.65;;;3.95;;
56653;SDS011;45096;52.302;4.634;2023-04-24T12:10:52;14.27;;;4.00;;
56653;SDS011;45096;52.302;4.634;2023-04-24T12:13:17;15.40;;;4.72;;
56653;SDS011;45096;52.302;4.634;2023-04-24T12:15:43;13.10;;;4.07;;
56653;SDS011;45096;52.302;4.634;2023-04-24T12:18:11;9.23;;;3.60;;
56653;SDS011;45096;52.302;4.634;2023-04-24T12:20:38;15.95;;;5.22;;
56653;SDS011;45096;52.302;4.634;2023-04-24T12:23:03;12.55;;;3.53;;
56653;SDS011;45096;52.302;4.634;2023-04-24T12:25:29;11.57;;;3.63;;
56653;SDS011;45096;52.302;4.634;2023-04-24T12:28:09;14.90;;;3.70;;
56653;SDS011;45096;52.302;4.634;2023-04-24T12:30:38;10.90;;;3.53;;
56653;SDS011;45096;52.302;4.634;2023-04-24T12:33:05;9.15;;;3.40;;
56653;SDS011;45096;52.302;4.634;2023-04-24T12:35:31;11.52;;;2.88;;
56653;SDS011;45096;52.302;4.634;2023-04-24T12:38:06;11.82;;;3.97;;
56653;SDS011;45096;52.302;4.634;2023-04-24T12:40:31;10.98;;;3.63;;
56653;SDS011;45096;52.302;4.634;2023-04-24T12:42:57;12.93;;;3.65;;
56653;SDS011;45096;52.302;4.634;2023-04-24T12:45:22;9.60;;;2.97;;
56653;SDS011;45096;52.302;4.634;2023-04-24T12:47:48;10.85;;;4.05;;
56653;SDS011;45096;52.302;4.634;2023-04-24T12:50:14;12.65;;;4.15;;
56653;SDS011;45096;52.302;4.634;2023-04-24T12:52:40;14.68;;;4.05;;
56653;SDS011;45096;52.302;4.634;2023-04-24T12:55:07;11.02;;;4.40;;
56653;SDS011;45096;52.302;4.634;2023-04-24T12:57:33;13.55;;;4.22;;
56653;SDS011;45096;52.302;4.634;2023-04-24T13:00:00;10.57;;;4.32;;
56653;SDS011;45096;52.302;4.634;2023-04-24T13:02:27;14.27;;;4.20;;
56653;SDS011;45096;52.302;4.634;2023-04-24T13:04:52;11.85;;;4.28;;
56653;SDS011;45096;52.302;4.634;2023-04-24T13:07:18;12.48;;;3.67;;
56653;SDS011;45096;52.302;4.634;2023-04-24T13:09:43;14.38;;;4.75;;
56653;SDS011;45096;52.302;4.634;2023-04-24T13:12:11;11.55;;;4.38;;
56653;SDS011;45096;52.302;4.634;2023-04-24T13:14:38;9.70;;;3.72;;
56653;SDS011;45096;52.302;4.634;2023-04-24T13:17:04;13.57;;;4.05;;
56653;SDS011;45096;52.302;4.634;2023-04-24T13:19:29;11.38;;;3.47;;
56653;SDS011;45096;52.302;4.634;2023-04-24T13:21:55;12.63;;;4.70;;
56653;SDS011;45096;52.302;4.634;2023-04-24T13:24:21;14.63;;;5.53;;
56653;SDS011;45096;52.302;4.634;2023-04-24T13:26:46;17.92;;;4.28;;
56653;SDS011;45096;52.302;4.634;2023-04-24T13:29:13;17.67;;;5.80;;
56653;SDS011;45096;52.302;4.634;2023-04-24T13:31:39;15.68;;;4.32;;
56653;SDS011;45096;52.302;4.634;2023-04-24T13:34:04;10.13;;;3.70;;
56653;SDS011;45096;52.302;4.634;2023-04-24T13:36:30;7.45;;;3.95;;
56653;SDS011;45096;52.302;4.634;2023-04-24T13:38:55;11.95;;;3.78;;
56653;SDS011;45096;52.302;4.634;2023-04-24T13:41:20;15.80;;;4.20;;
56653;SDS011;45096;52.302;4.634;2023-04-24T13:43:46;12.73;;;4.03;;
56653;SDS011;45096;52.302;4.634;2023-04-24T13:46:13;10.52;;;3.53;;
56653;SDS011;45096;52.302;4.634;2023-04-24T13:48:38;13.07;;;3.85;;
56653;SDS011;45096;52.302;4.634;2023-04-24T13:51:04;8.10;;;3.15;;
56653;SDS011;45096;52.302;4.634;2023-04-24T13:53:29;5.97;;;2.92;;
56653;SDS011;45096;52.302;4.634;2023-04-24T13:55:55;8.63;;;3.50;;
56653;SDS011;45096;52.302;4.634;2023-04-24T13:58:20;6.88;;;3.55;;
56653;SDS011;45096;52.302;4.634;2023-04-24T14:00:45;12.50;;;3.88;;
56653;SDS011;45096;52.302;4.634;2023-04-24T14:03:12;13.68;;;3.88;;
56653;SDS011;45096;52.302;4.634;2023-04-24T14:05:38;10.43;;;4.03;;
56653;SDS011;45096;52.302;4.634;2023-04-24T14:08:03;7.20;;;3.22;;
56653;SDS011;45096;52.302;4.634;2023-04-24T14:10:29;15.68;;;4.40;;
56653;SDS011;45096;52.302;4.634;2023-04-24T14:12:54;11.60;;;4.35;;
56653;SDS011;45096;52.302;4.634;2023-04-24T14:15:20;35.78;;;21.45;;
56653;SDS011;45096;52.302;4.634;2023-04-24T14:17:45;11.93;;;4.80;;
56653;SDS011;45096;52.302;4.634;2023-04-24T14:20:13;15.00;;;5.00;;
56653;SDS011;45096;52.302;4.634;2023-04-24T14:22:38;14.20;;;4.25;;
56653;SDS011;45096;52.302;4.634;2023-04-24T14:25:04;21.67;;;5.88;;
56653;SDS011;45096;52.302;4.634;2023-04-24T14:27:30;22.00;;;5.35;;
56653;SDS011;45096;52.302;4.634;2023-04-24T14:29:56;14.82;;;4.68;;
56653;SDS011;45096;52.302;4.634;2023-04-24T14:32:22;11.57;;;4.18;;
56653;SDS011;45096;52.302;4.634;2023-04-24T14:34:47;11.90;;;3.88;;
56653;SDS011;45096;52.302;4.634;2023-04-24T14:37:14;17.83;;;5.32;;